createdAt,value
2019-02-20T00:02:15.823Z,70.79
2019-02-20T00:04:47.439Z,70.33
2019-02-20T00:07:19.040Z,70.36
2019-02-20T00:09:50.528Z,70.01
2019-02-20T00:12:21.910Z,69.98
2019-02-20T00:14:53.461Z,69.94
2019-02-20T00:17:25.006Z,69.76
2019-02-20T00:19:56.587Z,69.74
2019-02-20T00:22:28.044Z,69.63
2019-02-20T00:24:59.450Z,69.31
2019-02-20T00:27:30.849Z,69.01
2019-02-20T00:30:02.242Z,69.01
2019-02-20T00:32:35.214Z,69.09
2019-02-20T00:35:06.725Z,69.12
2019-02-20T00:37:38.234Z,69.05
2019-02-20T00:40:09.884Z,69.17
2019-02-20T00:42:43.690Z,69.30
2019-02-20T00:45:36.915Z,69.34
2019-02-20T00:48:30.876Z,69.35
2019-02-20T00:51:28.216Z,69.30
2019-02-20T00:54:02.433Z,69.15
2019-02-20T00:56:33.927Z,69.09
2019-02-20T00:59:05.357Z,68.99
2019-02-20T01:01:36.848Z,68.88
2019-02-20T01:04:08.296Z,68.67
2019-02-20T01:06:39.746Z,68.79
2019-02-20T01:09:11.403Z,68.81
2019-02-20T01:11:42.906Z,68.72
2019-02-20T01:14:14.382Z,68.79
2019-02-20T01:16:45.754Z,68.83
2019-02-20T01:19:17.288Z,68.92
2019-02-20T01:21:48.751Z,69.05
2019-02-20T01:24:21.281Z,69.04
2019-02-20T01:26:52.685Z,69.05
2019-02-20T01:29:24.173Z,69.13
2019-02-20T01:31:55.574Z,69.05
2019-02-20T01:34:26.993Z,69.10
2019-02-20T01:36:58.449Z,69.24
2019-02-20T01:39:29.858Z,69.33
2019-02-20T01:42:02.258Z,69.44
2019-02-20T01:44:33.710Z,69.50
2019-02-20T01:47:05.214Z,69.56
2019-02-20T01:49:36.747Z,69.54
2019-02-20T01:52:08.335Z,69.85
2019-02-20T01:54:46.041Z,69.87
2019-02-20T01:57:17.769Z,69.96
2019-02-20T01:59:49.263Z,69.94
2019-02-20T02:02:20.686Z,69.84
2019-02-20T02:04:52.260Z,69.97
2019-02-20T02:07:23.666Z,69.98
2019-02-20T02:09:56.179Z,70.11
2019-02-20T02:12:27.661Z,69.92
2019-02-20T02:14:59.137Z,70.02
2019-02-20T02:17:30.715Z,69.70
2019-02-20T02:20:02.280Z,69.78
2019-02-20T02:22:34.392Z,69.71
2019-02-20T02:25:06.196Z,69.73
2019-02-20T02:27:37.804Z,69.62
2019-02-20T02:30:10.630Z,69.79
2019-02-20T02:32:42.093Z,69.71
2019-02-20T02:35:13.558Z,69.59
2019-02-20T02:37:45.285Z,69.67
2019-02-20T02:40:16.700Z,69.70
2019-02-20T02:42:48.267Z,69.54
2019-02-20T02:45:19.938Z,69.63
2019-02-20T02:47:51.440Z,69.74
2019-02-20T02:50:23.986Z,69.71
2019-02-20T02:52:55.467Z,69.54
2019-02-20T02:55:26.933Z,69.40
2019-02-20T02:57:58.347Z,69.43
2019-02-20T03:00:29.944Z,69.57
2019-02-20T03:03:01.383Z,69.53
2019-02-20T03:05:32.936Z,69.57
2019-02-20T03:08:04.442Z,69.83
2019-02-20T03:10:35.976Z,69.61
2019-02-20T03:13:07.488Z,69.65
2019-02-20T03:15:38.951Z,69.70
2019-02-20T03:18:10.343Z,69.71
2019-02-20T03:20:41.865Z,69.87
2019-02-20T03:23:13.298Z,69.93
2019-02-20T03:25:44.802Z,69.93
2019-02-20T03:28:16.246Z,70.08
2019-02-20T03:30:47.686Z,70.14
2019-02-20T03:33:19.161Z,70.20
2019-02-20T03:35:50.571Z,70.25
2019-02-20T03:38:30.038Z,70.37
2019-02-20T03:40:55.285Z,70.36
2019-02-20T03:43:26.766Z,70.37
2019-02-20T03:45:59.897Z,70.44
2019-02-20T03:48:31.621Z,70.46
2019-02-20T03:51:03.173Z,70.54
2019-02-20T03:53:34.656Z,70.49
2019-02-20T03:56:06.407Z,70.42
2019-02-20T03:58:37.892Z,70.39
2019-02-20T04:01:09.329Z,70.34
2019-02-20T04:03:41.945Z,70.29
2019-02-20T04:06:13.437Z,70.11
2019-02-20T04:08:44.891Z,70.24
2019-02-20T04:11:16.315Z,70.08
2019-02-20T04:13:47.816Z,69.98
2019-02-20T04:16:19.370Z,69.66
2019-02-20T04:18:53.713Z,69.64
2019-02-20T04:21:25.241Z,69.51
2019-02-20T04:24:02.362Z,69.63
2019-02-20T04:26:30.015Z,69.63
2019-02-20T04:29:01.713Z,69.66
2019-02-20T04:31:34.402Z,69.81
2019-02-20T04:34:05.955Z,69.86
2019-02-20T04:36:39.273Z,70.00
2019-02-20T04:39:11.928Z,70.03
2019-02-20T04:41:43.663Z,70.23
2019-02-20T04:44:15.390Z,70.17
2019-02-20T04:46:47.218Z,70.24
2019-02-20T04:49:18.721Z,70.28
2019-02-20T04:51:56.236Z,70.37
2019-02-20T04:54:27.889Z,70.54
2019-02-20T04:56:59.618Z,70.51
2019-02-20T04:59:32.424Z,70.54
2019-02-20T05:02:05.609Z,70.51
2019-02-20T05:04:37.162Z,70.39
2019-02-20T05:07:08.802Z,70.39
2019-02-20T05:09:40.361Z,70.33
2019-02-20T05:12:13.463Z,70.26
2019-02-20T05:14:45.141Z,70.42
2019-02-20T05:17:16.608Z,70.24
2019-02-20T05:19:48.079Z,70.18
2019-02-20T05:22:19.554Z,70.28
2019-02-20T05:24:53.138Z,70.33
2019-02-20T05:27:24.641Z,70.41
2019-02-20T05:29:57.623Z,70.33
2019-02-20T05:32:29.011Z,70.36
2019-02-20T05:35:00.713Z,70.35
2019-02-20T05:37:32.263Z,70.35
2019-02-20T05:40:03.697Z,70.44
2019-02-20T05:42:35.251Z,70.48
2019-02-20T05:45:06.937Z,70.36
2019-02-20T05:47:38.407Z,70.36
2019-02-20T05:50:09.887Z,70.39
2019-02-20T05:52:41.429Z,70.42
2019-02-20T05:55:12.851Z,70.22
2019-02-20T05:57:45.643Z,70.27
2019-02-20T06:00:18.109Z,70.29
2019-02-20T06:02:49.529Z,70.27
2019-02-20T06:05:21.083Z,70.28
2019-02-20T06:07:52.451Z,70.13
2019-02-20T06:10:23.882Z,70.13
2019-02-20T06:12:55.617Z,70.04
2019-02-20T06:15:27.033Z,70.31
2019-02-20T06:17:58.514Z,70.46
2019-02-20T06:20:30.011Z,70.62
2019-02-20T06:23:01.454Z,70.59
2019-02-20T06:25:32.970Z,70.56
2019-02-20T06:28:04.461Z,70.51
2019-02-20T06:30:35.973Z,70.52
2019-02-20T06:33:07.407Z,70.44
2019-02-20T06:35:39.063Z,70.44
2019-02-20T06:38:11.439Z,70.42
2019-02-20T06:40:43.239Z,70.53
2019-02-20T06:43:15.934Z,70.62
2019-02-20T06:45:53.812Z,70.85
2019-02-20T06:48:25.499Z,70.99
2019-02-20T06:50:56.986Z,71.16
2019-02-20T06:53:28.487Z,71.27
2019-02-20T06:56:00.014Z,71.31
2019-02-20T06:58:31.810Z,71.18
2019-02-20T07:01:03.398Z,71.34
2019-02-20T07:03:35.612Z,71.22
2019-02-20T07:06:59.979Z,71.17
2019-02-20T07:10:24.346Z,71.26
2019-02-20T07:13:27.069Z,71.86
2019-02-20T07:16:41.194Z,70.88
2019-02-20T07:19:52.687Z,70.71
2019-02-20T07:22:58.420Z,70.39
2019-02-20T07:26:08.147Z,70.23
2019-02-20T07:29:27.854Z,70.62
2019-02-20T07:31:59.317Z,70.41
2019-02-20T07:34:30.761Z,70.37
2019-02-20T07:37:02.321Z,70.35
2019-02-20T07:39:33.759Z,70.38
2019-02-20T07:42:05.159Z,70.37
2019-02-20T07:44:36.673Z,70.24
2019-02-20T07:47:08.124Z,70.31
2019-02-20T07:49:39.560Z,70.08
2019-02-20T07:52:10.938Z,69.92
2019-02-20T07:54:42.461Z,69.75
2019-02-20T07:57:13.869Z,69.96
2019-02-20T07:59:45.300Z,69.44
2019-02-20T08:02:16.805Z,69.74
2019-02-20T08:04:48.204Z,69.67
2019-02-20T08:07:19.679Z,69.14
2019-02-20T08:09:51.096Z,68.91
2019-02-20T08:12:22.682Z,68.82
2019-02-20T08:14:55.221Z,68.89
2019-02-20T08:17:26.619Z,67.87
2019-02-20T08:19:59.174Z,67.20
2019-02-20T08:22:30.601Z,66.56
2019-02-20T08:25:02.073Z,65.81
2019-02-20T08:27:33.544Z,65.76
2019-02-20T08:30:06.688Z,65.89
2019-02-20T08:32:38.159Z,65.00
2019-02-20T08:35:10.116Z,65.26
2019-02-20T08:37:41.992Z,65.79
2019-02-20T08:40:15.291Z,65.51
2019-02-20T08:42:46.728Z,64.71
2019-02-20T08:45:18.121Z,64.40
2019-02-20T08:47:49.589Z,63.94
2019-02-20T08:50:21.064Z,62.29
2019-02-20T08:52:52.520Z,62.46
2019-02-20T08:55:31.760Z,60.65
2019-02-20T08:57:57.097Z,60.06
2019-02-20T09:00:28.540Z,57.72
2019-02-20T09:02:59.970Z,57.33
2019-02-20T09:05:34.126Z,57.01
2019-02-20T09:08:04.918Z,55.55
2019-02-20T09:10:36.344Z,55.37
2019-02-20T09:13:07.754Z,55.28
2019-02-20T09:15:39.180Z,55.95
2019-02-20T09:18:10.614Z,54.31
2019-02-20T09:20:42.394Z,54.50
2019-02-20T09:23:13.754Z,55.95
2019-02-20T09:25:45.208Z,57.12
2019-02-20T09:28:19.129Z,56.84
2019-02-20T09:30:50.650Z,57.03
2019-02-20T09:33:22.093Z,56.54
2019-02-20T09:35:53.569Z,55.85
2019-02-20T09:38:24.935Z,55.81
2019-02-20T09:40:56.333Z,55.55
2019-02-20T09:43:27.723Z,54.46
2019-02-20T09:45:59.244Z,53.78
2019-02-20T09:48:30.695Z,54.81
2019-02-20T09:51:02.124Z,55.49
2019-02-20T09:53:33.516Z,56.03
2019-02-20T09:56:05.003Z,56.54
2019-02-20T09:58:36.499Z,56.65
2019-02-20T10:01:07.899Z,56.73
2019-02-20T10:03:39.404Z,57.25
2019-02-20T10:06:12.874Z,56.22
2019-02-20T10:08:43.973Z,56.42
2019-02-20T10:11:15.370Z,54.87
2019-02-20T10:13:47.152Z,54.51
2019-02-20T10:16:18.592Z,55.00
2019-02-20T10:18:49.975Z,55.69
2019-02-20T10:21:21.339Z,55.35
2019-02-20T10:23:52.779Z,55.51
2019-02-20T10:26:24.183Z,55.92
2019-02-20T10:28:55.669Z,56.27
2019-02-20T10:31:30.019Z,56.50
2019-02-20T10:34:01.406Z,56.19
2019-02-20T10:36:33.831Z,56.79
2019-02-20T10:39:08.001Z,56.63
2019-02-20T10:41:39.825Z,57.41
2019-02-20T10:44:12.264Z,56.93
2019-02-20T10:46:43.745Z,56.98
2019-02-20T10:49:16.228Z,56.53
2019-02-20T10:51:48.659Z,56.06
2019-02-20T10:54:22.550Z,55.62
2019-02-20T10:56:56.481Z,56.29
2019-02-20T10:59:28.252Z,56.42
2019-02-20T11:01:59.669Z,56.19
2019-02-20T11:04:31.141Z,56.92
2019-02-20T11:07:05.303Z,56.90
2019-02-20T11:09:36.794Z,56.53
2019-02-20T11:12:08.168Z,57.54
2019-02-20T11:14:39.753Z,57.41
2019-02-20T11:17:11.302Z,56.93
2019-02-20T11:19:42.840Z,57.34
2019-02-20T11:22:14.204Z,57.48
2019-02-20T11:24:45.621Z,57.38
2019-02-20T11:27:17.039Z,57.82
2019-02-20T11:29:48.538Z,57.99
2019-02-20T11:32:20.025Z,58.08
2019-02-20T11:34:51.449Z,57.26
2019-02-20T11:37:22.807Z,58.43
2019-02-20T11:39:54.257Z,57.91
2019-02-20T11:42:25.808Z,58.33
2019-02-20T11:44:57.245Z,58.40
2019-02-20T11:47:28.676Z,57.87
2019-02-20T11:50:00.211Z,57.42
2019-02-20T11:52:38.195Z,57.39
2019-02-20T11:55:05.564Z,57.19
2019-02-20T11:57:37.112Z,57.98
2019-02-20T12:00:09.997Z,56.94
2019-02-20T12:02:42.247Z,57.16
2019-02-20T12:05:13.868Z,57.64
2019-02-20T12:07:45.405Z,57.26
2019-02-20T12:10:18.359Z,57.19
2019-02-20T12:12:50.903Z,57.52
2019-02-20T12:15:22.287Z,56.15
2019-02-20T12:17:53.765Z,56.39
2019-02-20T12:20:25.136Z,56.73
2019-02-20T12:22:56.628Z,56.40
2019-02-20T12:25:28.113Z,56.28
2019-02-20T12:27:59.488Z,55.90
2019-02-20T12:30:30.860Z,56.71
2019-02-20T12:33:02.263Z,56.15
2019-02-20T12:35:36.156Z,56.36
2019-02-20T12:38:07.665Z,56.70
2019-02-20T12:40:39.062Z,56.47
2019-02-20T12:43:10.447Z,57.12
2019-02-20T12:45:42.184Z,56.62
2019-02-20T12:48:13.576Z,56.56
2019-02-20T12:50:44.979Z,57.06
2019-02-20T12:53:16.415Z,56.25
2019-02-20T12:55:47.892Z,56.47
2019-02-20T12:58:19.375Z,56.36
2019-02-20T13:00:50.773Z,57.23
2019-02-20T13:03:22.242Z,57.20
2019-02-20T13:05:53.785Z,57.72
2019-02-20T13:08:25.385Z,58.00
2019-02-20T13:10:57.828Z,57.78
2019-02-20T13:13:29.238Z,57.83
2019-02-20T13:16:09.321Z,58.06
2019-02-20T13:18:33.808Z,57.18
2019-02-20T13:21:05.348Z,57.02
2019-02-20T13:23:36.757Z,57.49
2019-02-20T13:26:08.166Z,56.91
2019-02-20T13:28:39.611Z,56.93
2019-02-20T13:31:11.034Z,56.51
2019-02-20T13:33:42.586Z,56.18
2019-02-20T13:36:14.118Z,55.72
2019-02-20T13:38:46.302Z,56.72
2019-02-20T13:41:18.722Z,55.84
2019-02-20T13:43:51.165Z,55.67
2019-02-20T13:46:22.572Z,56.07
2019-02-20T13:48:53.956Z,55.74
2019-02-20T13:51:25.370Z,55.63
2019-02-20T13:53:58.413Z,56.25
2019-02-20T13:56:29.826Z,55.62
2019-02-20T13:59:01.199Z,55.77
2019-02-20T14:01:32.617Z,56.61
2019-02-20T14:04:04.117Z,56.41
2019-02-20T14:06:36.037Z,55.90
2019-02-20T14:09:07.776Z,56.79
2019-02-20T14:11:40.881Z,56.55
2019-02-20T14:14:12.354Z,56.89
2019-02-20T14:16:43.730Z,56.77
2019-02-20T14:19:15.962Z,56.78
2019-02-20T14:21:47.352Z,56.92
2019-02-20T14:24:21.074Z,56.88
2019-02-20T14:26:52.538Z,56.76
2019-02-20T14:29:24.022Z,56.63
2019-02-20T14:31:55.868Z,56.84
2019-02-20T14:34:27.356Z,57.05
2019-02-20T14:36:58.768Z,56.40
2019-02-20T14:39:31.219Z,56.63
2019-02-20T14:42:03.349Z,56.81
2019-02-20T14:44:35.029Z,56.29
2019-02-20T14:47:06.489Z,56.49
2019-02-20T14:49:38.025Z,56.92
2019-02-20T14:52:09.429Z,56.44
2019-02-20T14:54:41.415Z,56.87
2019-02-20T14:57:19.376Z,56.74
2019-02-20T14:59:46.027Z,57.20
2019-02-20T15:02:17.452Z,56.86
2019-02-20T15:04:51.121Z,56.80
2019-02-20T15:07:22.592Z,56.97
2019-02-20T15:09:54.203Z,57.11
2019-02-20T15:12:25.671Z,57.19
2019-02-20T15:14:59.947Z,57.68
2019-02-20T15:17:34.005Z,57.37
2019-02-20T15:20:05.961Z,57.28
2019-02-20T15:22:37.818Z,57.36
2019-02-20T15:25:09.351Z,57.47
2019-02-20T15:27:40.937Z,57.42
2019-02-20T15:30:13.860Z,57.54
2019-02-20T15:32:45.388Z,57.51
2019-02-20T15:35:17.244Z,57.76
2019-02-20T15:37:48.701Z,57.91
2019-02-20T15:40:21.332Z,58.17
2019-02-20T15:42:52.769Z,58.22
2019-02-20T15:45:24.200Z,58.15
2019-02-20T15:47:56.213Z,58.39
2019-02-20T15:50:27.674Z,58.79
2019-02-20T15:52:59.063Z,58.67
2019-02-20T15:55:30.544Z,58.98
2019-02-20T15:58:01.949Z,59.14
2019-02-20T16:00:33.526Z,59.30
2019-02-20T16:03:05.488Z,59.60
2019-02-20T16:05:37.040Z,59.89
2019-02-20T16:08:08.941Z,60.04
2019-02-20T16:10:41.336Z,60.14
2019-02-20T16:13:12.728Z,60.00
2019-02-20T16:15:44.147Z,60.13
2019-02-20T16:18:16.878Z,60.20
2019-02-20T16:20:48.711Z,60.14
2019-02-20T16:23:20.196Z,59.77
2019-02-20T16:25:51.626Z,59.95
2019-02-20T16:28:27.896Z,59.98
2019-02-20T16:30:59.638Z,59.63
2019-02-20T16:33:31.113Z,58.77
2019-02-20T16:36:03.024Z,58.56
2019-02-20T16:38:34.678Z,57.51
2019-02-20T16:41:09.050Z,56.93
2019-02-20T16:43:40.670Z,56.66
2019-02-20T16:46:12.114Z,55.96
2019-02-20T16:48:43.540Z,56.09
2019-02-20T16:51:15.372Z,55.92
2019-02-20T16:53:46.973Z,55.41
2019-02-20T16:56:18.501Z,55.63
2019-02-20T16:59:14.901Z,54.75
2019-02-20T17:01:53.117Z,55.32
2019-02-20T17:04:27.088Z,55.15
2019-02-20T17:07:00.308Z,55.12
2019-02-20T17:09:43.995Z,55.39
2019-02-20T17:12:17.696Z,55.39
2019-02-20T17:14:50.330Z,55.28
2019-02-20T17:17:22.557Z,55.04
2019-02-20T17:20:01.858Z,55.19
2019-02-20T17:22:33.992Z,55.74
2019-02-20T17:25:06.654Z,55.98
2019-02-20T17:27:42.787Z,56.25
2019-02-20T17:30:20.621Z,56.32
2019-02-20T17:33:05.575Z,56.70
2019-02-20T17:35:39.618Z,56.91
2019-02-20T17:38:11.103Z,56.87
2019-02-20T17:40:43.555Z,56.95
2019-02-20T17:43:18.286Z,57.16
2019-02-20T17:45:52.529Z,57.67
2019-02-20T17:48:45.459Z,57.68
2019-02-20T17:51:17.988Z,57.61
2019-02-20T17:56:51.956Z,57.90
2019-02-20T17:59:25.292Z,57.86
2019-02-20T18:02:04.118Z,57.99
2019-02-20T18:04:36.076Z,57.81
2019-02-20T18:07:07.768Z,58.14
2019-02-20T18:09:39.368Z,58.25
2019-02-20T18:12:10.893Z,58.43
2019-02-20T18:14:42.370Z,58.53
2019-02-20T18:17:13.905Z,58.66
2019-02-20T18:19:45.416Z,58.71
2019-02-20T18:22:20.094Z,58.90
2019-02-20T18:24:52.701Z,59.05
2019-02-20T18:27:24.444Z,58.93
2019-02-20T18:29:55.985Z,58.94
2019-02-20T18:32:27.661Z,59.07
2019-02-20T18:34:59.132Z,59.00
2019-02-20T18:37:30.977Z,59.11
2019-02-20T18:40:02.883Z,59.20
2019-02-20T18:42:36.238Z,59.41
2019-02-20T18:45:11.916Z,59.61
2019-02-20T18:47:43.634Z,59.46
2019-02-20T18:50:16.340Z,59.58
2019-02-20T18:52:47.929Z,59.80
2019-02-20T18:55:19.408Z,59.81
2019-02-20T18:57:51.011Z,59.81
2019-02-20T19:00:22.790Z,59.69
2019-02-20T19:02:54.537Z,59.73
2019-02-20T19:05:26.147Z,59.61
2019-02-20T19:07:57.658Z,59.53
2019-02-20T19:10:35.613Z,59.83
2019-02-20T19:13:30.214Z,60.28
2019-02-20T19:16:28.691Z,60.11
2019-02-20T19:19:29.761Z,59.76
2019-02-20T19:22:16.060Z,59.63
2019-02-20T19:25:29.646Z,59.42
2019-02-20T19:28:44.242Z,59.20
2019-02-20T19:31:39.068Z,59.41
2019-02-20T19:34:40.231Z,59.80
2019-02-20T19:38:06.520Z,60.17
2019-02-20T19:41:14.082Z,60.25
2019-02-20T19:44:53.933Z,60.71
2019-02-20T19:47:57.883Z,60.77
2019-02-20T19:50:58.111Z,60.62
2019-02-20T19:54:22.814Z,60.65
2019-02-20T19:57:41.629Z,60.98
2019-02-20T20:00:35.461Z,60.78
2019-02-20T20:03:54.361Z,60.87
2019-02-20T20:06:56.150Z,60.83
2019-02-20T20:09:48.240Z,61.14
2019-02-20T20:13:28.121Z,61.08
2019-02-20T20:16:35.144Z,61.20
2019-02-20T20:19:54.236Z,61.45
2019-02-20T20:23:28.179Z,61.33
2019-02-20T20:26:36.924Z,61.49
2019-02-20T20:29:48.070Z,61.44
2019-02-20T20:32:52.253Z,61.64
2019-02-20T20:35:56.290Z,61.48
2019-02-20T20:38:49.892Z,61.70
2019-02-20T20:41:52.359Z,61.93
2019-02-20T20:44:49.238Z,62.00
2019-02-20T20:47:49.069Z,62.10
2019-02-20T20:51:09.390Z,62.26
2019-02-20T20:54:15.173Z,61.86
2019-02-20T20:57:39.884Z,61.86
2019-02-20T21:01:04.358Z,62.15
2019-02-20T21:03:41.967Z,62.23
2019-02-20T21:06:54.676Z,62.14
2019-02-20T21:09:53.631Z,62.28
2019-02-20T21:12:45.913Z,62.55
2019-02-20T21:16:15.213Z,62.81
2019-02-20T21:19:24.886Z,62.86
2019-02-20T21:22:36.853Z,63.14
2019-02-20T21:25:58.083Z,63.23
2019-02-20T21:29:01.930Z,63.41
2019-02-20T21:32:26.378Z,63.13
2019-02-20T21:35:30.067Z,63.52
2019-02-20T21:38:42.797Z,63.71
2019-02-20T21:41:43.730Z,63.28
2019-02-20T21:45:14.594Z,63.37
2019-02-20T21:48:19.700Z,63.45
2019-02-20T21:51:06.266Z,63.53
2019-02-20T21:54:21.024Z,63.74
2019-02-20T21:57:31.642Z,63.87
2019-02-20T22:00:53.446Z,63.82
2019-02-20T22:04:15.192Z,63.69
2019-02-20T22:07:12.885Z,63.74
2019-02-20T22:10:23.914Z,63.89
2019-02-20T22:13:23.567Z,63.79
2019-02-20T22:16:27.597Z,64.02
2019-02-20T22:19:44.847Z,64.33
2019-02-20T22:23:14.604Z,64.46
2019-02-20T22:26:17.336Z,64.43
2019-02-20T22:29:20.187Z,64.62
2019-02-20T22:32:29.322Z,64.60
2019-02-20T22:35:50.828Z,64.53
2019-02-20T22:38:54.489Z,64.55
2019-02-20T22:41:54.687Z,64.63
2019-02-20T22:45:16.403Z,64.51
2019-02-20T22:48:14.004Z,64.66
2019-02-20T22:51:33.089Z,64.68
2019-02-20T22:54:25.835Z,64.92
2019-02-20T22:57:33.238Z,64.92
2019-02-20T23:00:51.386Z,65.12
2019-02-20T23:04:04.984Z,65.10
2019-02-20T23:07:05.742Z,64.89
2019-02-20T23:10:04.656Z,64.98
2019-02-20T23:13:25.095Z,64.96
2019-02-20T23:15:56.855Z,64.99
2019-02-20T23:18:28.605Z,65.13
2019-02-20T23:21:00.601Z,65.20
2019-02-20T23:23:32.314Z,65.06
2019-02-20T23:26:04.044Z,65.15
2019-02-20T23:28:35.745Z,65.14
2019-02-20T23:31:07.585Z,65.10
2019-02-20T23:33:39.626Z,65.09
2019-02-20T23:36:17.000Z,65.02
2019-02-20T23:38:48.728Z,65.11
2019-02-20T23:41:20.362Z,65.08
2019-02-20T23:43:51.987Z,65.12
2019-02-20T23:46:24.748Z,65.00
2019-02-20T23:48:56.376Z,64.86
2019-02-20T23:51:27.876Z,64.85
2019-02-20T23:53:59.454Z,65.03
2019-02-20T23:56:31.050Z,65.02
2019-02-20T23:59:02.589Z,65.14
